createdAt,value
2022-08-20T00:01:12.918Z,5.95
2022-08-20T00:06:14.605Z,6.72
2022-08-20T00:11:19.340Z,6.63
2022-08-20T00:16:20.278Z,5.72
2022-08-20T00:26:21.243Z,6.18
2022-08-20T00:31:22.466Z,6.05
2022-08-20T00:36:22.188Z,5.50
2022-08-20T00:41:32.627Z,5.50
2022-08-20T00:46:32.218Z,4.68
2022-08-20T00:51:38.340Z,6.13
2022-08-20T00:56:39.499Z,5.55
2022-08-20T01:01:54.927Z,6.25
2022-08-20T01:06:55.502Z,6.18
2022-08-20T01:11:56.524Z,6.22
2022-08-20T01:16:59.828Z,5.72
2022-08-20T01:22:01.618Z,5.97
2022-08-20T01:27:04.316Z,5.07
2022-08-20T01:32:03.205Z,5.65
2022-08-20T01:37:02.266Z,5.53
2022-08-20T01:42:08.766Z,5.53
2022-08-20T01:47:16.024Z,5.90
2022-08-20T01:52:21.325Z,6.32
2022-08-20T01:57:26.895Z,5.57
2022-08-20T02:02:27.548Z,5.75
2022-08-20T02:07:26.609Z,5.78
2022-08-20T02:12:27.512Z,5.43
2022-08-20T02:17:26.970Z,5.25
2022-08-20T02:22:31.256Z,5.55
2022-08-20T02:27:32.522Z,5.45
2022-08-20T02:32:34.455Z,6.20
2022-08-20T02:37:33.518Z,4.93
2022-08-20T02:42:33.799Z,7.32
2022-08-20T02:47:32.649Z,6.00
2022-08-20T02:52:31.805Z,7.38
2022-08-20T02:57:30.931Z,6.97
2022-08-20T03:02:32.194Z,6.65
2022-08-20T03:07:31.044Z,6.95
2022-08-20T03:12:30.088Z,6.57
2022-08-20T03:17:30.376Z,7.25
2022-08-20T03:22:29.416Z,6.13
2022-08-20T03:27:29.985Z,6.30
2022-08-20T03:32:37.750Z,7.60
2022-08-20T03:42:36.726Z,6.32
2022-08-20T03:47:37.273Z,6.38
2022-08-20T03:52:36.282Z,6.17
2022-08-20T03:57:35.815Z,7.32
2022-08-20T04:02:34.818Z,6.15
2022-08-20T04:07:36.787Z,6.75
2022-08-20T04:12:36.517Z,7.88
2022-08-20T04:17:36.329Z,7.32
2022-08-20T04:22:57.533Z,7.20
2022-08-20T04:27:58.901Z,7.22
2022-08-20T04:32:59.609Z,8.15
2022-08-20T04:38:06.724Z,7.72
2022-08-20T04:43:06.886Z,6.78
2022-08-20T04:48:10.595Z,6.40
2022-08-20T04:53:16.918Z,6.07
2022-08-20T04:58:18.911Z,8.63
2022-08-20T05:03:19.292Z,8.70
2022-08-20T05:08:23.190Z,7.17
2022-08-20T05:13:26.782Z,7.25
2022-08-20T05:18:26.948Z,7.78
2022-08-20T05:23:27.183Z,7.22
2022-08-20T05:28:32.726Z,7.43
2022-08-20T05:33:36.200Z,8.98
2022-08-20T05:38:38.371Z,8.25
2022-08-20T05:43:37.329Z,7.85
2022-08-20T05:48:36.751Z,7.80
2022-08-20T05:53:37.794Z,6.82
2022-08-20T06:04:03.847Z,7.35
2022-08-20T06:09:04.196Z,8.40
2022-08-20T06:14:03.983Z,6.78
2022-08-20T06:19:03.044Z,7.32
2022-08-20T06:24:03.448Z,7.05
2022-08-20T06:29:02.709Z,7.13
2022-08-20T06:34:01.979Z,7.72
2022-08-20T06:39:01.161Z,7.18
2022-08-20T06:44:01.517Z,7.35
2022-08-20T06:49:00.878Z,6.18
2022-08-20T06:54:00.062Z,7.75
2022-08-20T06:58:59.399Z,7.65
2022-08-20T07:04:00.801Z,6.28
2022-08-20T07:09:00.140Z,6.25
2022-08-20T07:13:59.543Z,8.65
2022-08-20T07:19:00.185Z,12.13
2022-08-20T07:23:59.273Z,6.47
2022-08-20T07:28:58.187Z,6.82
2022-08-20T07:39:21.944Z,13.43
2022-08-20T07:44:21.783Z,38.70
2022-08-20T07:49:28.945Z,34.30
2022-08-20T07:54:30.571Z,18.50
2022-08-20T07:59:30.607Z,10.38
2022-08-20T08:04:31.062Z,10.00
2022-08-20T08:09:30.170Z,10.25
2022-08-20T08:14:32.709Z,8.27
2022-08-20T08:19:38.965Z,6.95
2022-08-20T08:24:37.889Z,6.88
2022-08-20T08:29:37.190Z,5.63
2022-08-20T08:34:38.247Z,5.63
2022-08-20T08:39:37.246Z,5.25
2022-08-20T08:44:41.524Z,4.90
2022-08-20T08:49:42.035Z,4.38
2022-08-20T08:54:44.550Z,4.72
2022-08-20T08:59:56.191Z,4.00
2022-08-20T09:05:14.796Z,3.73
2022-08-20T09:10:16.156Z,3.15
2022-08-20T09:15:22.954Z,3.60
2022-08-20T09:20:27.161Z,3.55
2022-08-20T09:25:26.594Z,3.65
2022-08-20T09:30:25.471Z,3.35
2022-08-20T09:35:25.836Z,3.58
2022-08-20T09:40:24.939Z,2.80
2022-08-20T09:45:24.313Z,3.85
2022-08-20T09:50:24.141Z,3.92
2022-08-20T09:55:32.891Z,3.88
2022-08-20T10:00:32.073Z,4.72
2022-08-20T10:05:31.890Z,3.15
2022-08-20T10:10:32.378Z,3.25
2022-08-20T10:15:32.001Z,4.82
2022-08-20T10:20:43.055Z,3.45
2022-08-20T10:26:15.647Z,3.35
2022-08-20T10:31:29.182Z,3.85
2022-08-20T10:36:29.367Z,3.20
2022-08-20T10:41:29.690Z,3.80
2022-08-20T10:46:28.887Z,3.58
2022-08-20T10:51:32.252Z,2.95
2022-08-20T10:56:33.257Z,4.00
2022-08-20T11:01:36.150Z,3.45
2022-08-20T11:06:35.759Z,3.33
2022-08-20T11:11:36.193Z,3.40
2022-08-20T11:16:38.353Z,3.33
2022-08-20T11:21:37.506Z,3.45
2022-08-20T11:26:38.023Z,3.35
2022-08-20T11:31:36.997Z,2.95
2022-08-20T11:36:36.658Z,3.83
2022-08-20T11:41:35.623Z,3.35
2022-08-20T11:46:36.309Z,3.13
2022-08-20T11:51:39.961Z,3.30
2022-08-20T11:56:50.781Z,3.65
2022-08-20T12:02:02.703Z,3.33
2022-08-20T12:07:16.114Z,3.70
2022-08-20T12:12:15.909Z,3.13
2022-08-20T12:17:23.724Z,2.90
2022-08-20T12:22:25.267Z,2.92
2022-08-20T12:27:27.069Z,2.95
2022-08-20T12:32:31.009Z,2.33
2022-08-20T12:37:31.632Z,3.42
2022-08-20T12:48:14.401Z,3.00
2022-08-20T12:53:15.389Z,2.90
2022-08-20T12:58:19.534Z,2.63
2022-08-20T13:03:45.205Z,3.45
2022-08-20T13:08:44.652Z,2.53
2022-08-20T13:14:13.378Z,2.72
2022-08-20T13:19:25.324Z,2.90
2022-08-20T13:24:32.014Z,2.53
2022-08-20T13:29:31.057Z,3.20
2022-08-20T13:34:31.831Z,3.15
2022-08-20T13:39:30.872Z,2.85
2022-08-20T13:44:32.773Z,2.90
2022-08-20T13:49:33.910Z,2.72
2022-08-20T13:54:34.883Z,2.83
2022-08-20T13:59:39.723Z,2.30
2022-08-20T14:04:40.654Z,2.30
2022-08-20T14:09:40.765Z,2.25
2022-08-20T14:14:39.729Z,2.30
2022-08-20T14:19:40.442Z,2.70
2022-08-20T14:24:39.306Z,2.45
2022-08-20T14:29:51.045Z,2.40
2022-08-20T14:34:54.111Z,2.90
2022-08-20T14:39:55.420Z,3.00
2022-08-20T14:44:55.694Z,2.58
2022-08-20T14:49:58.028Z,3.03
2022-08-20T14:54:57.054Z,2.58
2022-08-20T14:59:56.029Z,2.92
2022-08-20T15:04:57.014Z,2.90
2022-08-20T15:09:57.320Z,2.80
2022-08-20T15:14:56.573Z,2.17
2022-08-20T15:20:08.044Z,2.63
2022-08-20T15:25:10.861Z,2.50
2022-08-20T15:30:12.882Z,2.17
2022-08-20T15:35:13.414Z,2.35
2022-08-20T15:40:16.097Z,3.08
2022-08-20T15:45:22.258Z,2.45
2022-08-20T15:50:39.220Z,3.20
2022-08-20T15:55:48.924Z,2.60
2022-08-20T16:00:55.706Z,2.47
2022-08-20T16:06:13.861Z,2.20
2022-08-20T16:11:23.579Z,2.50
2022-08-20T16:16:28.592Z,2.55
2022-08-20T16:21:37.540Z,2.88
2022-08-20T16:26:54.527Z,3.40
2022-08-20T16:32:01.935Z,3.38
2022-08-20T16:37:12.941Z,2.97
2022-08-20T16:42:12.640Z,3.13
2022-08-20T16:47:17.917Z,3.08
2022-08-20T16:52:18.750Z,2.97
2022-08-20T16:57:18.644Z,3.10
2022-08-20T17:02:20.781Z,3.20
2022-08-20T17:07:33.591Z,3.55
2022-08-20T17:12:33.006Z,3.45
2022-08-20T17:17:33.993Z,3.75
2022-08-20T17:22:44.629Z,3.33
2022-08-20T17:27:43.845Z,3.47
2022-08-20T17:32:58.069Z,3.38
2022-08-20T17:38:00.935Z,3.50
2022-08-20T17:43:06.521Z,5.32
2022-08-20T17:48:08.838Z,8.05
2022-08-20T17:53:21.086Z,9.23
2022-08-20T17:58:32.892Z,10.77
2022-08-20T18:03:32.422Z,9.07
2022-08-20T18:08:41.090Z,6.18
2022-08-20T18:13:56.724Z,4.53
2022-08-20T18:18:59.799Z,4.47
2022-08-20T18:24:06.749Z,5.35
2022-08-20T18:29:13.291Z,5.25
2022-08-20T18:34:14.430Z,4.80
2022-08-20T18:39:32.749Z,4.03
2022-08-20T18:44:44.055Z,4.38
2022-08-20T18:49:43.584Z,5.10
2022-08-20T18:54:51.868Z,4.50
2022-08-20T18:59:57.424Z,3.90
2022-08-20T19:04:59.807Z,4.93
2022-08-20T19:10:34.512Z,4.22
2022-08-20T19:15:37.614Z,4.60
2022-08-20T19:20:43.384Z,4.40
2022-08-20T19:25:54.058Z,4.90
2022-08-20T19:31:17.399Z,4.10
2022-08-20T19:36:19.395Z,4.90
2022-08-20T19:41:30.928Z,4.00
2022-08-20T19:46:35.789Z,4.45
2022-08-20T19:51:48.099Z,4.90
2022-08-20T19:56:49.893Z,4.28
2022-08-20T20:01:58.855Z,4.35
2022-08-20T20:06:59.728Z,5.78
2022-08-20T20:12:04.436Z,4.50
2022-08-20T20:17:07.096Z,4.60
2022-08-20T20:22:19.358Z,4.65
2022-08-20T20:27:25.208Z,4.93
2022-08-20T20:32:26.433Z,4.55
2022-08-20T20:37:49.154Z,4.70
2022-08-20T20:43:03.521Z,4.35
2022-08-20T20:48:12.292Z,5.43
2022-08-20T20:53:16.512Z,4.15
2022-08-20T20:58:20.858Z,4.57
2022-08-20T21:03:23.164Z,4.20
2022-08-20T21:08:22.215Z,4.70
2022-08-20T21:13:22.795Z,4.45
2022-08-20T21:18:25.761Z,4.78
2022-08-20T21:23:40.085Z,4.78
2022-08-20T21:28:42.474Z,4.68
2022-08-20T21:33:41.346Z,5.10
2022-08-20T21:38:40.270Z,4.82
2022-08-20T21:43:39.145Z,5.50
2022-08-20T21:48:39.576Z,4.93
2022-08-20T21:53:38.584Z,4.60
2022-08-20T21:58:37.852Z,4.63
2022-08-20T22:03:41.012Z,5.15
2022-08-20T22:08:40.293Z,5.45
2022-08-20T22:13:40.756Z,4.60
2022-08-20T22:18:42.009Z,4.63
2022-08-20T22:23:41.122Z,4.90
2022-08-20T22:28:40.563Z,3.97
2022-08-20T22:33:42.026Z,4.22
2022-08-20T22:38:41.297Z,4.47
2022-08-20T22:43:49.719Z,4.40
2022-08-20T22:48:57.782Z,4.97
2022-08-20T22:53:56.828Z,4.10
2022-08-20T22:58:58.347Z,4.15
2022-08-20T23:04:05.390Z,4.97
2022-08-20T23:09:04.567Z,4.22
2022-08-20T23:14:04.027Z,4.40
2022-08-20T23:19:04.568Z,4.47
2022-08-20T23:24:03.423Z,4.50
2022-08-20T23:29:04.333Z,4.65
2022-08-20T23:34:04.723Z,4.40
2022-08-20T23:39:07.374Z,4.88
2022-08-20T23:44:07.351Z,3.67
2022-08-20T23:49:27.360Z,4.10
2022-08-20T23:54:26.314Z,4.85
2022-08-20T23:59:25.430Z,4.22
